Terminal Aerodrome Forecast
Issued by NWS Grand Forks, ND

Home | Current Version | Previous Version | Text Only | Print | Product List | Glossary On
Versions: 1 2 3 4 5 6 7 8 9 10 11 12 13 14 15 16 17 18 19 20 21 22 23 24 25 26
400
FTUS43 KFGF 180520
TAFGFK
TAF
KGFK 180520Z 1806/1906 22004KT P6SM SCT150
     FM181000 VRB03KT P6SM VCTS BKN100CB
     FM181300 VRB03KT P6SM BKN110
     FM181500 34004KT P6SM SCT110
     FM190100 28006KT P6SM FEW200=

USA.gov is the U.S. government's official web portal to all federal, state and local government web resources and services.